Time,TemperatureF,DewpointF,PressureIn,WindDirection,WindDirectionDegrees,WindSpeedMPH,WindSpeedGustMPH,Humidity,HourlyPrecipIn,Conditions,Clouds,dailyrainin,SolarRadiationWatts/m^2,SoftwareType,DateUTC
2013-04-10 00:12:00,10.0,7.0,-100.00,NW,311,7.0,14.0,89,0.00,,,0.46,0.000000,,2013-04-10 06:12:00,
2013-04-10 00:22:00,10.0,7.0,-100.00,NW,311,7.0,14.0,89,0.00,,,0.46,0.000000,,2013-04-10 06:22:00,
2013-04-10 00:32:00,10.0,7.0,-100.00,NW,311,7.0,14.0,89,0.00,,,0.46,0.000000,,2013-04-10 06:32:00,
2013-04-10 00:42:00,10.0,7.0,-100.00,NW,311,7.0,14.0,89,0.00,,,0.46,0.000000,,2013-04-10 06:42:00,
2013-04-10 01:12:00,10.0,7.0,-100.00,NW,313,6.0,10.0,89,0.00,,,0.46,0.000000,,2013-04-10 07:12:00,
2013-04-10 01:22:00,10.0,7.0,-100.00,NW,313,6.0,10.0,89,0.00,,,0.46,0.000000,,2013-04-10 07:22:00,
2013-04-10 01:32:00,10.0,7.0,-100.00,NW,313,6.0,10.0,89,0.00,,,0.46,0.000000,,2013-04-10 07:32:00,
2013-04-10 01:42:00,10.0,7.0,-100.00,NW,313,6.0,10.0,89,0.00,,,0.46,0.000000,,2013-04-10 07:42:00,
2013-04-10 02:12:00,10.0,7.0,-100.00,WNW,297,6.0,12.0,89,0.00,,,0.46,0.000000,,2013-04-10 08:12:00,
2013-04-10 02:22:00,10.0,7.0,-100.00,WNW,297,6.0,12.0,89,0.00,,,0.46,0.000000,,2013-04-10 08:22:00,
2013-04-10 02:32:00,10.0,7.0,-100.00,WNW,297,6.0,12.0,89,0.00,,,0.46,0.000000,,2013-04-10 08:32:00,
2013-04-10 02:42:00,10.0,7.0,-100.00,WNW,297,6.0,12.0,89,0.00,,,0.46,0.000000,,2013-04-10 08:42:00,
2013-04-10 03:12:00,10.0,7.0,-100.00,WNW,286,4.0,13.0,89,0.00,,,0.46,0.000000,,2013-04-10 09:12:00,
2013-04-10 03:22:00,10.0,7.0,-100.00,WNW,286,4.0,13.0,89,0.00,,,0.46,0.000000,,2013-04-10 09:22:00,
2013-04-10 03:32:00,10.0,7.0,-100.00,WNW,286,4.0,13.0,89,0.00,,,0.46,0.000000,,2013-04-10 09:32:00,
2013-04-10 03:42:00,10.0,7.0,-100.00,WNW,286,4.0,13.0,89,0.00,,,0.46,0.000000,,2013-04-10 09:42:00,
2013-04-10 04:12:00,8.0,5.0,-100.00,WNW,300,9.0,14.0,88,0.00,,,0.46,0.000000,,2013-04-10 10:12:00,
2013-04-10 04:23:00,8.0,5.0,-100.00,WNW,300,9.0,14.0,88,0.00,,,0.46,0.000000,,2013-04-10 10:23:00,
2013-04-10 04:33:00,8.0,5.0,-100.00,WNW,300,9.0,14.0,88,0.00,,,0.46,0.000000,,2013-04-10 10:33:00,
2013-04-10 04:42:00,8.0,5.0,-100.00,WNW,300,9.0,14.0,88,0.00,,,0.46,0.000000,,2013-04-10 10:42:00,
2013-04-10 05:12:00,7.0,4.0,-100.00,WNW,302,9.0,14.0,88,0.00,,,0.46,0.000000,,2013-04-10 11:12:00,
2013-04-10 05:22:00,7.0,4.0,-100.00,WNW,302,9.0,14.0,88,0.00,,,0.46,0.000000,,2013-04-10 11:22:00,
2013-04-10 05:32:00,7.0,4.0,-100.00,WNW,302,9.0,14.0,88,0.00,,,0.46,0.000000,,2013-04-10 11:32:00,
2013-04-10 05:42:00,7.0,4.0,-100.00,WNW,302,9.0,14.0,88,0.00,,,0.46,0.000000,,2013-04-10 11:42:00,
2013-04-10 08:12:00,14.0,12.0,-100.00,WSW,256,0.0,6.0,90,-99.99,,,0.46,126.000000,,2013-04-10 14:12:00,
2013-04-10 08:22:00,14.0,12.0,-100.00,WSW,256,0.0,6.0,90,-99.99,,,0.46,126.000000,,2013-04-10 14:22:00,
2013-04-10 08:32:00,14.0,12.0,-100.00,WSW,256,0.0,6.0,90,-99.99,,,0.46,126.000000,,2013-04-10 14:32:00,
2013-04-10 08:42:00,14.0,12.0,-100.00,WSW,256,0.0,6.0,90,-99.99,,,0.46,126.000000,,2013-04-10 14:42:00,
2013-04-10 09:12:00,19.0,10.0,-100.00,ESE,116,0.0,7.0,68,0.01,,,0.47,343.000000,,2013-04-10 15:12:00,
2013-04-10 09:22:00,19.0,10.0,-100.00,ESE,116,0.0,7.0,68,0.01,,,0.47,343.000000,,2013-04-10 15:22:00,
2013-04-10 09:32:00,19.0,10.0,-100.00,ESE,116,0.0,7.0,68,0.01,,,0.47,343.000000,,2013-04-10 15:32:00,
2013-04-10 09:42:00,19.0,10.0,-100.00,ESE,116,0.0,7.0,68,0.01,,,0.47,343.000000,,2013-04-10 15:42:00,
2013-04-10 10:12:00,22.0,11.0,-100.00,WNW,301,3.0,8.0,62,0.02,,,0.49,567.000000,,2013-04-10 16:12:00,
2013-04-10 10:23:00,22.0,11.0,-100.00,WNW,301,3.0,8.0,62,0.02,,,0.49,567.000000,,2013-04-10 16:23:00,
2013-04-10 10:32:00,22.0,11.0,-100.00,WNW,301,3.0,8.0,62,0.02,,,0.49,567.000000,,2013-04-10 16:32:00,
2013-04-10 10:42:00,22.0,11.0,-100.00,WNW,301,3.0,8.0,62,0.02,,,0.49,567.000000,,2013-04-10 16:42:00,
2013-04-10 11:12:00,22.0,11.0,-100.00,WNW,283,5.0,11.0,61,0.05,,,0.54,828.000000,,2013-04-10 17:12:00,
2013-04-10 11:22:00,22.0,11.0,-100.00,WNW,283,5.0,11.0,61,0.05,,,0.54,828.000000,,2013-04-10 17:22:00,
2013-04-10 11:33:00,22.0,11.0,-100.00,WNW,283,5.0,11.0,61,0.05,,,0.54,828.000000,,2013-04-10 17:33:00,
2013-04-10 11:42:00,22.0,11.0,-100.00,WNW,283,5.0,11.0,61,0.05,,,0.54,828.000000,,2013-04-10 17:42:00,
2013-04-10 12:12:00,21.0,12.0,-100.00,West,274,9.0,15.0,68,0.01,,,0.46,981.000000,,2013-04-10 18:12:00,
2013-04-10 12:22:00,21.0,12.0,-100.00,West,274,9.0,15.0,68,0.01,,,0.46,981.000000,,2013-04-10 18:22:00,
2013-04-10 12:32:00,21.0,12.0,-100.00,West,274,9.0,15.0,68,0.01,,,0.46,981.000000,,2013-04-10 18:32:00,
2013-04-10 12:42:00,21.0,12.0,-100.00,West,274,9.0,15.0,68,0.01,,,0.46,981.000000,,2013-04-10 18:42:00,
2013-04-10 13:12:00,22.0,13.0,-100.00,West,262,11.0,17.0,68,0.00,,,0.36,1063.000000,,2013-04-10 19:12:00,
2013-04-10 13:22:00,22.0,13.0,-100.00,West,262,11.0,17.0,68,0.00,,,0.36,1063.000000,,2013-04-10 19:22:00,
2013-04-10 13:32:00,22.0,13.0,-100.00,West,262,11.0,17.0,68,0.00,,,0.36,1063.000000,,2013-04-10 19:32:00,
2013-04-10 13:42:00,22.0,13.0,-100.00,West,262,11.0,17.0,68,0.00,,,0.36,1063.000000,,2013-04-10 19:42:00,
2013-04-10 14:12:00,24.0,14.0,-100.00,West,275,12.0,19.0,64,0.00,,,0.23,1112.000000,,2013-04-10 20:12:00,
2013-04-10 14:23:00,24.0,14.0,-100.00,West,275,12.0,19.0,64,0.00,,,0.23,1112.000000,,2013-04-10 20:23:00,
2013-04-10 14:32:00,24.0,14.0,-100.00,West,275,12.0,19.0,64,0.00,,,0.23,1112.000000,,2013-04-10 20:32:00,
2013-04-10 14:42:00,24.0,14.0,-100.00,West,275,12.0,19.0,64,0.00,,,0.23,1112.000000,,2013-04-10 20:42:00,
2013-04-10 15:12:00,25.0,15.0,-100.00,West,261,9.0,19.0,65,0.00,,,0.18,1056.000000,,2013-04-10 21:12:00,
2013-04-10 15:22:00,25.0,15.0,-100.00,West,261,9.0,19.0,65,0.00,,,0.18,1056.000000,,2013-04-10 21:22:00,
2013-04-10 15:32:00,25.0,15.0,-100.00,West,261,9.0,19.0,65,0.00,,,0.18,1056.000000,,2013-04-10 21:32:00,
2013-04-10 15:42:00,25.0,15.0,-100.00,West,261,9.0,19.0,65,0.00,,,0.18,1056.000000,,2013-04-10 21:42:00,
2013-04-10 16:12:00,27.0,16.0,-100.00,West,275,11.0,17.0,62,0.00,,,0.14,954.000000,,2013-04-10 22:12:00,
2013-04-10 16:22:00,27.0,16.0,-100.00,West,275,11.0,17.0,62,0.00,,,0.14,954.000000,,2013-04-10 22:22:00,
2013-04-10 16:33:00,27.0,16.0,-100.00,West,275,11.0,17.0,62,0.00,,,0.14,954.000000,,2013-04-10 22:33:00,
2013-04-10 16:42:00,27.0,16.0,-100.00,West,275,11.0,17.0,62,0.00,,,0.14,954.000000,,2013-04-10 22:42:00,
2013-04-10 17:12:00,27.0,15.0,-100.00,NW,309,9.0,20.0,61,0.00,,,0.10,776.000000,,2013-04-10 23:12:00,
2013-04-10 17:22:00,27.0,15.0,-100.00,NW,309,9.0,20.0,61,0.00,,,0.10,776.000000,,2013-04-10 23:22:00,
2013-04-10 17:32:00,27.0,15.0,-100.00,NW,309,9.0,20.0,61,0.00,,,0.10,776.000000,,2013-04-10 23:32:00,
2013-04-10 17:42:00,27.0,15.0,-100.00,NW,309,9.0,20.0,61,0.00,,,0.10,776.000000,,2013-04-10 23:42:00,
2013-04-10 18:12:00,25.0,15.0,-100.00,WNW,294,11.0,19.0,65,0.00,,,-99.99,547.000000,,2013-04-11 00:12:00,
2013-04-10 18:22:00,25.0,15.0,-100.00,WNW,294,11.0,19.0,65,0.00,,,-99.99,547.000000,,2013-04-11 00:22:00,
2013-04-10 18:32:00,25.0,15.0,-100.00,WNW,294,11.0,19.0,65,0.00,,,-99.99,547.000000,,2013-04-11 00:32:00,
2013-04-10 18:42:00,25.0,15.0,-100.00,WNW,294,11.0,19.0,65,0.00,,,-99.99,547.000000,,2013-04-11 00:42:00,
2013-04-10 19:12:00,21.0,14.0,-100.00,WNW,297,13.0,25.0,73,0.00,,,0.09,302.000000,,2013-04-11 01:12:00,
2013-04-10 19:22:00,21.0,14.0,-100.00,WNW,297,13.0,25.0,73,0.00,,,0.09,302.000000,,2013-04-11 01:22:00,
2013-04-10 19:32:00,21.0,14.0,-100.00,WNW,297,13.0,25.0,73,0.00,,,0.09,302.000000,,2013-04-11 01:32:00,
2013-04-10 19:42:00,21.0,14.0,-100.00,WNW,297,13.0,25.0,73,0.00,,,0.09,302.000000,,2013-04-11 01:42:00,
2013-04-10 20:12:00,18.0,13.0,-100.00,WNW,290,12.0,26.0,82,0.00,,,0.09,56.000000,,2013-04-11 02:12:00,
2013-04-10 20:22:00,18.0,13.0,-100.00,WNW,290,12.0,26.0,82,0.00,,,0.09,56.000000,,2013-04-11 02:22:00,
2013-04-10 20:32:00,18.0,13.0,-100.00,WNW,290,12.0,26.0,82,0.00,,,0.09,56.000000,,2013-04-11 02:32:00,
2013-04-10 20:42:00,18.0,13.0,-100.00,WNW,290,12.0,26.0,82,0.00,,,0.09,56.000000,,2013-04-11 02:42:00,
2013-04-10 21:02:00,17.0,13.0,-100.00,WNW,286,9.0,19.0,83,0.00,,,0.09,0.000000,,2013-04-11 03:02:00,
2013-04-10 21:12:00,17.0,13.0,-100.00,WNW,286,9.0,19.0,83,0.00,,,0.09,0.000000,,2013-04-11 03:12:00,
2013-04-10 21:22:00,17.0,13.0,-100.00,WNW,286,9.0,19.0,83,0.00,,,0.09,0.000000,,2013-04-11 03:22:00,
2013-04-10 21:33:00,17.0,13.0,-100.00,WNW,286,9.0,19.0,83,0.00,,,0.09,0.000000,,2013-04-11 03:33:00,
2013-04-10 21:43:00,17.0,13.0,-100.00,WNW,286,9.0,19.0,83,0.00,,,0.09,0.000000,,2013-04-11 03:43:00,
2013-04-10 22:03:00,16.0,12.0,-100.00,WSW,256,11.0,20.0,84,0.00,,,0.09,0.000000,,2013-04-11 04:03:00,
2013-04-10 22:12:00,16.0,12.0,-100.00,WSW,256,11.0,20.0,84,0.00,,,0.09,0.000000,,2013-04-11 04:12:00,
2013-04-10 22:22:00,16.0,12.0,-100.00,WSW,256,11.0,20.0,84,0.00,,,0.09,0.000000,,2013-04-11 04:22:00,
2013-04-10 22:33:00,16.0,12.0,-100.00,WSW,256,11.0,20.0,84,0.00,,,0.09,0.000000,,2013-04-11 04:33:00,
2013-04-10 22:42:00,16.0,12.0,-100.00,WSW,256,11.0,20.0,84,0.00,,,0.09,0.000000,,2013-04-11 04:42:00,
2013-04-10 23:12:00,16.0,9.0,-100.00,West,266,9.0,16.0,73,0.00,,,0.09,0.000000,,2013-04-11 05:12:00,
2013-04-10 23:22:00,16.0,9.0,-100.00,West,266,9.0,16.0,73,0.00,,,0.09,0.000000,,2013-04-11 05:22:00,
2013-04-10 23:32:00,16.0,9.0,-100.00,West,266,9.0,16.0,73,0.00,,,0.09,0.000000,,2013-04-11 05:32:00,
2013-04-10 23:42:00,16.0,9.0,-100.00,West,266,9.0,16.0,73,0.00,,,0.09,0.000000,,2013-04-11 05:42:00,